Terminal Aerodrome Forecast
Issued by NWS Sioux Falls, SD

Home | Current Version | Previous Version | Text Only | Print | Product List | Glossary On
Versions: 1 2 3 4 5 6 7 8 9 10 11 12 13 14 15 16 17
313
FTUS43 KFSD 102338
TAFFSD
TAF
KFSD 102338Z 1100/1124 25006KT P6SM SCT150 SCT250
     FM111100 29014G24KT P6SM SCT150
     FM111400 31020G30KT P6SM -SN OVC019
     FM111800 33023G35KT P6SM -SN OVC018
     FM112100 34023G35KT P6SM OVC022
     FM112300 33016G28KT P6SM BKN035=

USA.gov is the U.S. government's official web portal to all federal, state and local government web resources and services.